createdAt,value
2022-09-24T00:02:18.815Z,13.29
2022-09-24T00:04:45.649Z,13.37
2022-09-24T00:07:12.391Z,13.27
2022-09-24T00:09:39.486Z,13.06
2022-09-24T00:12:07.600Z,12.99
2022-09-24T00:14:34.408Z,12.95
2022-09-24T00:17:01.159Z,13.03
2022-09-24T00:19:28.055Z,13.06
2022-09-24T00:21:54.774Z,13.14
2022-09-24T00:24:21.762Z,13.19
2022-09-24T00:26:48.442Z,13.26
2022-09-24T00:29:20.026Z,13.33
2022-09-24T00:31:48.696Z,13.20
2022-09-24T00:34:15.796Z,13.19
2022-09-24T00:36:43.136Z,13.27
2022-09-24T00:39:09.874Z,13.26
2022-09-24T00:41:39.457Z,13.28
2022-09-24T00:44:54.977Z,13.25
2022-09-24T00:47:37.198Z,13.34
2022-09-24T00:50:17.973Z,13.44
2022-09-24T00:52:51.825Z,13.51
2022-09-24T00:55:21.930Z,13.51
2022-09-24T00:57:52.635Z,13.55
2022-09-24T01:00:20.839Z,13.57
2022-09-24T01:02:55.157Z,13.60
2022-09-24T01:05:22.020Z,13.62
2022-09-24T01:07:49.002Z,13.35
2022-09-24T01:10:22.358Z,12.98
2022-09-24T01:13:04.215Z,13.10
2022-09-24T01:15:42.550Z,13.24
2022-09-24T01:18:23.346Z,13.31
2022-09-24T01:21:16.170Z,13.37
2022-09-24T01:24:22.631Z,13.42
2022-09-24T01:27:06.189Z,13.48
2022-09-24T01:29:50.074Z,13.45
2022-09-24T01:32:30.204Z,13.41
2022-09-24T01:35:05.986Z,13.46
2022-09-24T01:37:37.286Z,13.44
2022-09-24T01:40:08.820Z,13.43
2022-09-24T01:42:39.639Z,13.43
2022-09-24T01:45:11.551Z,13.41
2022-09-24T01:47:41.133Z,13.42
2022-09-24T01:50:12.343Z,13.42
2022-09-24T01:52:46.572Z,13.41
2022-09-24T01:55:20.083Z,13.38
2022-09-24T01:57:52.355Z,13.38
2022-09-24T02:00:22.390Z,13.37
2022-09-24T02:02:57.586Z,13.40
2022-09-24T02:05:34.688Z,13.39
2022-09-24T02:08:08.260Z,13.39
2022-09-24T02:10:44.031Z,13.38
2022-09-24T02:13:13.025Z,13.40
2022-09-24T02:15:49.904Z,13.38
2022-09-24T02:18:22.876Z,13.36
2022-09-24T02:20:52.670Z,13.16
2022-09-24T02:23:20.768Z,12.98
2022-09-24T02:25:56.719Z,12.76
2022-09-24T02:28:24.513Z,12.85
2022-09-24T02:31:01.375Z,12.93
2022-09-24T02:33:33.858Z,13.00
2022-09-24T02:36:01.795Z,12.73
2022-09-24T02:38:28.583Z,12.58
2022-09-24T02:40:56.925Z,12.68
2022-09-24T02:43:23.766Z,12.76
2022-09-24T02:45:51.837Z,12.78
2022-09-24T02:48:18.807Z,12.55
2022-09-24T02:50:45.858Z,12.35
2022-09-24T02:53:12.606Z,12.21
2022-09-24T02:55:39.506Z,12.41
2022-09-24T02:58:06.275Z,12.51
2022-09-24T03:00:33.043Z,12.61
2022-09-24T03:03:01.169Z,12.72
2022-09-24T03:05:28.245Z,12.80
2022-09-24T03:07:54.993Z,12.86
2022-09-24T03:10:21.847Z,12.93
2022-09-24T03:12:48.651Z,12.97
2022-09-24T03:15:15.604Z,13.00
2022-09-24T03:17:42.346Z,13.03
2022-09-24T03:20:10.548Z,13.05
2022-09-24T03:22:37.270Z,13.10
2022-09-24T03:25:04.963Z,13.12
2022-09-24T03:27:32.715Z,13.11
2022-09-24T03:29:59.892Z,13.11
2022-09-24T03:32:26.621Z,13.10
2022-09-24T03:34:53.476Z,13.14
2022-09-24T03:37:21.656Z,13.14
2022-09-24T03:39:48.931Z,13.10
2022-09-24T03:42:15.698Z,13.09
2022-09-24T03:44:42.655Z,13.12
2022-09-24T03:47:09.430Z,13.15
2022-09-24T03:49:36.196Z,13.17
2022-09-24T03:52:03.196Z,13.16
2022-09-24T03:54:31.295Z,13.19
2022-09-24T03:56:58.031Z,13.20
2022-09-24T03:59:25.231Z,13.17
2022-09-24T04:01:51.985Z,13.17
2022-09-24T04:04:18.899Z,13.16
2022-09-24T04:06:45.659Z,13.14
2022-09-24T04:09:12.697Z,13.12
2022-09-24T04:11:41.026Z,13.08
2022-09-24T04:14:07.741Z,13.07
2022-09-24T04:16:34.781Z,13.08
2022-09-24T04:19:01.563Z,13.02
2022-09-24T04:21:28.294Z,13.01
2022-09-24T04:23:55.312Z,12.97
2022-09-24T04:26:22.016Z,12.94
2022-09-24T04:28:50.613Z,12.93
2022-09-24T04:31:17.417Z,12.92
2022-09-24T04:33:44.484Z,12.92
2022-09-24T04:36:11.233Z,12.64
2022-09-24T04:38:40.034Z,12.58
2022-09-24T04:41:08.563Z,12.63
2022-09-24T04:43:35.759Z,12.60
2022-09-24T04:46:05.133Z,12.48
2022-09-24T04:48:32.387Z,12.50
2022-09-24T04:50:59.259Z,12.51
2022-09-24T04:53:26.111Z,12.48
2022-09-24T04:55:53.092Z,12.48
2022-09-24T04:58:20.094Z,12.50
2022-09-24T05:00:46.835Z,12.56
2022-09-24T05:03:15.020Z,12.63
2022-09-24T05:05:41.986Z,12.67
2022-09-24T05:08:09.083Z,12.73
2022-09-24T05:10:35.807Z,12.76
2022-09-24T05:13:02.805Z,12.78
2022-09-24T05:15:30.181Z,12.81
2022-09-24T05:17:58.941Z,12.83
2022-09-24T05:20:28.410Z,12.83
2022-09-24T05:22:55.364Z,12.79
2022-09-24T05:25:22.525Z,12.71
2022-09-24T05:27:51.650Z,12.78
2022-09-24T05:30:21.250Z,12.78
2022-09-24T05:32:48.419Z,12.75
2022-09-24T05:35:15.596Z,12.86
2022-09-24T05:37:44.105Z,12.92
2022-09-24T05:40:11.006Z,13.03
2022-09-24T05:42:37.811Z,13.08
2022-09-24T05:45:06.115Z,13.13
2022-09-24T05:47:32.787Z,13.17
2022-09-24T05:49:59.839Z,13.21
2022-09-24T05:52:26.614Z,13.26
2022-09-24T05:54:54.918Z,13.23
2022-09-24T05:57:21.645Z,13.28
2022-09-24T05:59:48.430Z,13.34
2022-09-24T06:02:15.205Z,13.38
2022-09-24T06:04:41.975Z,13.44
2022-09-24T06:07:08.692Z,13.56
2022-09-24T06:09:35.945Z,13.66
2022-09-24T06:12:07.639Z,13.69
2022-09-24T06:14:34.608Z,13.72
2022-09-24T06:17:01.272Z,13.81
2022-09-24T06:19:28.135Z,13.83
2022-09-24T06:21:54.860Z,13.91
2022-09-24T06:24:21.627Z,13.91
2022-09-24T06:26:48.609Z,13.91
2022-09-24T06:30:50.878Z,13.87
2022-09-24T06:33:54.416Z,13.79
2022-09-24T06:36:24.709Z,13.79
2022-09-24T06:41:58.081Z,13.76
2022-09-24T06:45:18.180Z,13.84
2022-09-24T06:56:28.077Z,14.17
2022-09-24T06:59:04.179Z,14.29
2022-09-24T07:01:38.501Z,14.46
2022-09-24T07:09:44.019Z,14.42
2022-09-24T07:12:15.034Z,14.55
2022-09-24T07:14:42.207Z,14.15
2022-09-24T07:17:08.966Z,14.12
2022-09-24T07:19:35.693Z,14.06
2022-09-24T07:22:02.609Z,13.93
2022-09-24T07:24:29.461Z,13.82
2022-09-24T07:26:57.653Z,13.91
2022-09-24T07:29:24.499Z,13.84
2022-09-24T07:31:51.472Z,13.85
2022-09-24T07:34:20.599Z,13.98
2022-09-24T07:36:51.527Z,14.10
2022-09-24T07:39:18.847Z,14.21
2022-09-24T07:41:45.763Z,14.43
2022-09-24T07:44:14.217Z,14.59
2022-09-24T07:46:41.134Z,14.81
2022-09-24T07:49:08.244Z,14.28
2022-09-24T07:51:35.095Z,14.42
2022-09-24T07:58:49.438Z,14.91
2022-09-24T08:05:33.932Z,14.11
2022-09-24T08:08:01.782Z,14.50
2022-09-24T08:10:28.854Z,14.87
2022-09-24T08:12:55.924Z,15.14
2022-09-24T08:15:30.128Z,15.34
2022-09-24T08:22:18.662Z,15.73
2022-09-24T08:26:26.714Z,15.77
2022-09-24T09:05:22.313Z,15.45
2022-09-24T09:08:01.267Z,14.70
2022-09-24T09:10:36.034Z,14.64
2022-09-24T09:22:00.780Z,15.74
2022-09-24T09:25:44.762Z,15.91
2022-09-24T09:41:54.277Z,16.51
2022-09-24T09:49:46.141Z,15.78
2022-09-24T09:53:29.327Z,15.60
2022-09-24T09:55:37.913Z,15.93
2022-09-24T09:58:22.344Z,16.14
2022-09-24T10:01:03.503Z,16.01
2022-09-24T10:03:48.225Z,16.19
2022-09-24T10:06:31.844Z,15.88
2022-09-24T10:10:03.991Z,15.61
2022-09-24T10:13:38.619Z,15.64
2022-09-24T10:16:11.870Z,16.00
2022-09-24T10:18:48.698Z,16.78
2022-09-24T10:21:57.436Z,18.16
2022-09-24T10:24:29.396Z,18.24
2022-09-24T10:28:19.386Z,18.12
2022-09-24T10:34:26.956Z,17.74
2022-09-24T10:37:07.262Z,17.23
2022-09-24T10:39:37.513Z,17.76
2022-09-24T10:47:40.788Z,17.35
2022-09-24T10:56:12.049Z,18.14
2022-09-24T10:58:28.918Z,17.46
2022-09-24T10:59:30.133Z,18.43
2022-09-24T11:02:34.173Z,18.29
2022-09-24T11:05:12.047Z,18.37
2022-09-24T11:08:08.633Z,18.33
2022-09-24T11:11:06.402Z,17.90
2022-09-24T11:13:51.462Z,17.90
2022-09-24T11:17:14.239Z,17.91
2022-09-24T11:20:10.448Z,18.05
2022-09-24T11:23:03.077Z,17.98
2022-09-24T11:25:44.616Z,17.76
2022-09-24T11:28:43.031Z,18.00
2022-09-24T11:31:32.117Z,17.89
2022-09-24T11:34:26.989Z,17.79
2022-09-24T11:37:16.151Z,17.80
2022-09-24T11:40:06.015Z,17.74
2022-09-24T11:42:49.566Z,17.58
2022-09-24T11:45:45.877Z,17.47
2022-09-24T11:48:43.232Z,17.23
2022-09-24T11:51:25.870Z,17.11
2022-09-24T11:53:59.092Z,17.20
2022-09-24T11:56:33.732Z,17.39
2022-09-24T11:59:24.590Z,17.45
2022-09-24T12:02:01.067Z,17.48
2022-09-24T12:04:50.523Z,17.61
2022-09-24T12:07:26.302Z,17.77
2022-09-24T12:09:59.809Z,17.88
2022-09-24T12:12:33.682Z,17.77
2022-09-24T12:15:06.834Z,17.58
2022-09-24T12:17:40.857Z,17.52
2022-09-24T12:20:20.488Z,17.60
2022-09-24T12:22:53.465Z,17.54
2022-09-24T12:25:20.467Z,17.46
2022-09-24T12:27:48.325Z,17.45
2022-09-24T12:30:33.546Z,17.45
2022-09-24T12:33:14.764Z,17.48
2022-09-24T12:36:03.827Z,17.47
2022-09-24T12:38:38.162Z,17.46
2022-09-24T12:41:31.435Z,17.40
2022-09-24T12:44:06.001Z,17.26
2022-09-24T12:46:42.077Z,17.12
2022-09-24T12:49:33.724Z,17.01
2022-09-24T12:52:04.743Z,16.95
2022-09-24T12:54:34.500Z,16.87
2022-09-24T12:57:13.374Z,16.75
2022-09-24T12:59:50.656Z,16.50
2022-09-24T13:02:22.207Z,16.36
2022-09-24T13:05:18.131Z,16.26
2022-09-24T13:07:58.814Z,16.28
2022-09-24T13:10:30.178Z,16.37
2022-09-24T13:12:59.432Z,16.50
2022-09-24T13:15:34.425Z,16.49
2022-09-24T13:18:22.352Z,16.50
2022-09-24T13:21:02.211Z,16.53
2022-09-24T13:23:45.882Z,16.55
2022-09-24T13:26:29.668Z,16.46
2022-09-24T13:29:00.403Z,16.52
2022-09-24T13:31:41.341Z,16.61
2022-09-24T13:34:20.420Z,16.70
2022-09-24T13:36:57.795Z,16.83
2022-09-24T13:39:34.850Z,16.94
2022-09-24T13:42:15.136Z,17.07
2022-09-24T13:44:48.488Z,17.11
2022-09-24T13:47:27.269Z,17.20
2022-09-24T13:50:07.122Z,17.26
2022-09-24T13:52:43.015Z,17.31
2022-09-24T13:55:23.302Z,17.32
2022-09-24T13:57:50.430Z,17.36
2022-09-24T14:00:21.673Z,17.45
2022-09-24T14:03:00.727Z,17.53
2022-09-24T14:05:30.162Z,17.60
2022-09-24T14:08:04.033Z,17.60
2022-09-24T14:10:32.547Z,17.07
2022-09-24T14:13:02.375Z,17.26
2022-09-24T14:15:29.321Z,16.94
2022-09-24T14:17:58.144Z,16.40
2022-09-24T14:20:33.101Z,16.21
2022-09-24T14:23:04.698Z,16.19
2022-09-24T14:25:36.221Z,16.36
2022-09-24T14:28:07.579Z,16.33
2022-09-24T14:30:47.210Z,16.41
2022-09-24T14:33:20.706Z,16.46
2022-09-24T14:35:52.886Z,16.54
2022-09-24T14:38:26.438Z,16.57
2022-09-24T14:40:59.831Z,16.66
2022-09-24T14:43:33.902Z,16.71
2022-09-24T14:46:06.916Z,16.80
2022-09-24T14:48:35.413Z,16.84
2022-09-24T14:51:02.604Z,16.75
2022-09-24T14:53:33.637Z,16.74
2022-09-24T14:56:06.902Z,16.66
2022-09-24T14:58:36.166Z,16.61
2022-09-24T15:01:12.398Z,16.64
2022-09-24T15:03:49.853Z,16.65
2022-09-24T15:06:25.025Z,16.41
2022-09-24T15:08:59.843Z,16.31
2022-09-24T15:11:30.415Z,16.20
2022-09-24T15:14:01.554Z,16.25
2022-09-24T15:16:33.377Z,16.28
2022-09-24T15:19:19.150Z,16.31
2022-09-24T15:21:48.204Z,16.33
2022-09-24T15:24:17.501Z,16.37
2022-09-24T15:26:47.657Z,16.35
2022-09-24T15:29:22.314Z,16.34
2022-09-24T15:31:49.668Z,16.31
2022-09-24T15:34:19.727Z,16.23
2022-09-24T15:36:54.929Z,16.21
2022-09-24T15:39:26.940Z,16.25
2022-09-24T15:41:53.765Z,16.18
2022-09-24T15:44:23.655Z,16.14
2022-09-24T15:46:52.295Z,16.15
2022-09-24T15:49:19.956Z,16.10
2022-09-24T15:51:46.698Z,16.09
2022-09-24T15:54:13.512Z,16.16
2022-09-24T15:56:44.183Z,16.26
2022-09-24T15:59:13.764Z,16.11
2022-09-24T16:01:42.267Z,16.21
2022-09-24T16:04:11.322Z,16.28
2022-09-24T16:06:38.395Z,16.40
2022-09-24T16:09:05.408Z,16.22
2022-09-24T16:11:32.925Z,16.34
2022-09-24T16:14:01.203Z,16.29
2022-09-24T16:16:28.499Z,16.33
2022-09-24T16:18:55.198Z,16.32
2022-09-24T16:21:22.210Z,16.29
2022-09-24T16:23:54.443Z,16.24
2022-09-24T16:26:21.220Z,16.19
2022-09-24T16:28:48.126Z,16.14
2022-09-24T16:31:16.417Z,16.14
2022-09-24T16:33:43.172Z,16.14
2022-09-24T16:36:11.637Z,16.06
2022-09-24T16:38:39.611Z,16.10
2022-09-24T16:41:07.815Z,16.06
2022-09-24T16:43:34.652Z,16.00
2022-09-24T16:46:02.299Z,15.96
2022-09-24T16:48:33.725Z,15.96
2022-09-24T16:51:07.341Z,15.90
2022-09-24T16:53:37.983Z,15.95
2022-09-24T16:56:07.788Z,15.95
2022-09-24T16:58:35.149Z,15.95
2022-09-24T17:01:05.097Z,15.86
2022-09-24T17:03:34.003Z,15.78
2022-09-24T17:06:01.542Z,15.75
2022-09-24T17:08:31.072Z,15.78
2022-09-24T17:11:00.508Z,15.85
2022-09-24T17:13:27.733Z,15.84
2022-09-24T17:15:55.178Z,15.90
2022-09-24T17:18:23.144Z,15.86
2022-09-24T17:21:00.909Z,15.88
2022-09-24T17:23:28.195Z,15.86
2022-09-24T17:26:01.882Z,15.91
2022-09-24T17:28:32.548Z,15.96
2022-09-24T17:31:02.782Z,15.95
2022-09-24T17:33:47.189Z,15.65
2022-09-24T17:36:17.546Z,15.54
2022-09-24T17:38:44.512Z,15.58
2022-09-24T17:41:14.026Z,15.56
2022-09-24T17:43:45.200Z,15.63
2022-09-24T17:46:15.440Z,15.71
2022-09-24T17:48:45.481Z,15.78
2022-09-24T17:51:15.370Z,15.84
2022-09-24T17:53:43.575Z,15.90
2022-09-24T17:56:12.528Z,15.96
2022-09-24T17:58:42.103Z,15.99
2022-09-24T18:01:11.675Z,16.02
2022-09-24T18:03:39.611Z,15.99
2022-09-24T18:06:09.471Z,15.99
2022-09-24T18:08:37.372Z,15.96
2022-09-24T18:11:09.935Z,15.99
2022-09-24T18:13:38.030Z,16.05
2022-09-24T18:16:08.963Z,16.09
2022-09-24T18:18:36.850Z,16.11
2022-09-24T18:21:07.085Z,16.07
2022-09-24T18:23:35.311Z,16.01
2022-09-24T18:26:13.578Z,15.99
2022-09-24T18:28:57.250Z,16.01
2022-09-24T18:31:27.337Z,16.01
2022-09-24T18:33:57.866Z,15.95
2022-09-24T18:36:24.996Z,16.00
2022-09-24T18:38:53.103Z,15.81
2022-09-24T18:41:23.407Z,15.68
2022-09-24T18:43:51.096Z,15.75
2022-09-24T18:46:19.871Z,15.64
2022-09-24T18:48:50.415Z,15.54
2022-09-24T18:51:19.888Z,15.40
2022-09-24T18:53:52.401Z,15.38
2022-09-24T18:56:22.955Z,15.35
2022-09-24T18:58:56.181Z,15.39
2022-09-24T19:01:23.454Z,15.33
2022-09-24T19:03:50.732Z,15.36
2022-09-24T19:06:17.859Z,15.35
2022-09-24T19:08:45.511Z,15.40
2022-09-24T19:11:13.901Z,15.48
2022-09-24T19:13:47.972Z,15.54
2022-09-24T19:16:17.776Z,15.56
2022-09-24T19:18:45.343Z,15.64
2022-09-24T19:21:13.262Z,15.65
2022-09-24T19:23:43.697Z,15.66
2022-09-24T19:26:17.709Z,15.70
2022-09-24T19:28:47.960Z,15.71
2022-09-24T19:31:18.021Z,15.71
2022-09-24T19:33:45.839Z,15.71
2022-09-24T19:36:14.761Z,15.73
2022-09-24T19:38:41.836Z,15.73
2022-09-24T19:41:14.683Z,15.73
2022-09-24T19:43:42.826Z,15.67
2022-09-24T19:46:17.925Z,15.65
2022-09-24T19:48:49.047Z,15.65
2022-09-24T19:51:22.241Z,15.66
2022-09-24T19:53:52.295Z,15.54
2022-09-24T19:56:23.247Z,15.38
2022-09-24T19:58:55.486Z,15.23
2022-09-24T20:01:27.054Z,15.30
2022-09-24T20:03:59.185Z,15.11
2022-09-24T20:06:28.350Z,15.18
2022-09-24T20:08:57.710Z,15.31
2022-09-24T20:11:27.710Z,15.34
2022-09-24T20:13:56.668Z,15.42
2022-09-24T20:16:28.029Z,15.47
2022-09-24T20:18:57.248Z,15.49
2022-09-24T20:21:25.848Z,15.53
2022-09-24T20:23:55.508Z,15.57
2022-09-24T20:26:22.929Z,15.58
2022-09-24T20:28:50.038Z,15.59
2022-09-24T20:31:17.709Z,15.54
2022-09-24T20:33:47.765Z,15.59
2022-09-24T20:36:19.686Z,15.61
2022-09-24T20:38:48.946Z,15.64
2022-09-24T20:41:18.926Z,15.68
2022-09-24T20:43:46.096Z,15.70
2022-09-24T20:46:18.108Z,15.70
2022-09-24T20:48:46.509Z,15.76
2022-09-24T20:51:15.986Z,15.77
2022-09-24T20:53:42.867Z,15.75
2022-09-24T20:56:10.900Z,15.73
2022-09-24T20:58:38.907Z,15.66
2022-09-24T21:01:06.715Z,15.68
2022-09-24T21:03:50.305Z,15.68
2022-09-24T21:06:19.525Z,15.65
2022-09-24T21:08:47.256Z,15.65
2022-09-24T21:11:17.300Z,15.65
2022-09-24T21:13:46.906Z,15.67
2022-09-24T21:16:14.013Z,15.64
2022-09-24T21:18:41.775Z,15.64
2022-09-24T21:21:11.568Z,15.61
2022-09-24T21:23:40.110Z,15.59
2022-09-24T21:26:13.233Z,15.53
2022-09-24T21:28:40.921Z,15.50
2022-09-24T21:31:08.217Z,15.49
2022-09-24T21:33:35.315Z,15.48
2022-09-24T21:36:05.298Z,15.49
2022-09-24T21:38:32.916Z,15.50
2022-09-24T21:41:01.691Z,15.49
2022-09-24T21:43:33.873Z,15.47
2022-09-24T21:46:04.692Z,15.44
2022-09-24T21:48:32.513Z,15.33
2022-09-24T21:51:04.341Z,15.14
2022-09-24T21:53:32.534Z,15.10
2022-09-24T21:56:02.269Z,15.13
2022-09-24T21:58:30.399Z,15.15
2022-09-24T22:00:57.720Z,15.18
2022-09-24T22:03:24.515Z,15.21
2022-09-24T22:05:51.879Z,15.23
2022-09-24T22:08:18.642Z,15.23
2022-09-24T22:10:45.522Z,15.21
2022-09-24T22:13:14.219Z,15.23
2022-09-24T22:15:41.350Z,15.27
2022-09-24T22:18:08.304Z,15.25
2022-09-24T22:20:43.066Z,15.29
2022-09-24T22:23:11.583Z,15.29
2022-09-24T22:25:45.289Z,14.82
2022-09-24T22:28:18.548Z,14.74
2022-09-24T22:30:50.851Z,14.80
2022-09-24T22:33:18.379Z,14.83
2022-09-24T22:35:47.603Z,14.87
2022-09-24T22:38:34.569Z,14.90
2022-09-24T22:41:15.392Z,14.91
2022-09-24T22:47:37.749Z,14.97
2022-09-24T22:50:05.727Z,14.94
2022-09-24T22:52:32.503Z,14.96
2022-09-24T22:54:59.182Z,14.97
2022-09-24T22:57:25.975Z,14.97
2022-09-24T22:59:54.367Z,14.93
2022-09-24T23:02:21.079Z,14.83
2022-09-24T23:04:48.063Z,14.76
2022-09-24T23:07:15.401Z,14.71
2022-09-24T23:09:42.144Z,14.68
2022-09-24T23:12:08.901Z,14.65
2022-09-24T23:14:35.899Z,14.53
2022-09-24T23:17:03.992Z,14.32
2022-09-24T23:19:30.921Z,14.24
2022-09-24T23:21:57.778Z,14.25
2022-09-24T23:24:24.719Z,14.35
2022-09-24T23:26:52.892Z,14.43
2022-09-24T23:29:20.049Z,14.53
2022-09-24T23:31:47.308Z,14.58
2022-09-24T23:34:15.473Z,14.65
2022-09-24T23:36:42.419Z,14.69
2022-09-24T23:39:09.462Z,14.70
2022-09-24T23:41:36.528Z,14.46
2022-09-24T23:44:03.906Z,14.47
2022-09-24T23:46:30.986Z,14.56
2022-09-24T23:48:57.803Z,14.61
2022-09-24T23:51:25.977Z,14.63
2022-09-24T23:53:53.224Z,14.62
2022-09-24T23:56:20.427Z,14.63
2022-09-24T23:58:47.467Z,14.67
